Cathlamet, Washington
Current Conditions -  °F | °C
As of 12:15 AM on Tuesday 27 Jan 2015 (Local Time) from KKLS Reporting Station
Few Clouds Few Clouds  
Wind Chill: 43°   Ceiling: Unl
Heat Index: 43°   Visibility: 5mi
Dew Point: 39°   Wind: 0mph
Humidity: 87%   Direction: NA
Pressure: 30.04"   Gusts: NA
Location:  46.2°N, 123.38°W
Report Text: KKLS 270815Z 00000KT 5SM FEW013 06/04 A3004 RMK AO1
Loading
Personal Weather Stations






























Interactive Weather Map New forecast layout! Learn more

10-Day Weather Forecast

Advertisements
Track Severe Weather on mobile